Terminal Aerodrome Forecast
Issued by NWS

Home | Current Version | Previous Version | Text Only | Print | Product List | Glossary On
Versions: 1 2 3 4 5 6 7 8 9 10 11 12 13 14 15 16 17 18 19 20
000
FTUS41 KALY 040543
TAFPSF
TAF
KPSF 040543Z 0406/0506 00000KT P6SM SCT100
     FM041100 23005KT P6SM FEW100
     FM041400 22010G18KT P6SM SKC
     FM041700 22013G23KT P6SM SCT080 SCT250
     FM042100 21012G20KT P6SM SCT080 BKN250
     FM050300 20010KT P6SM SCT050 BKN080=

USA.gov is the U.S. government's official web portal to all federal, state and local government web resources and services.